sensor_id;sensor_type;location;lat;lon;timestamp;pressure;altitude;pressure_sealevel;temperature;humidity
12624;BME280;6377;42.836;23.998;2023-05-07T00:02:26;95960.88;;;10.41;100.00
12624;BME280;6377;42.836;23.998;2023-05-07T00:04:53;95963.69;;;10.39;100.00
12624;BME280;6377;42.836;23.998;2023-05-07T00:07:21;95955.59;;;10.41;100.00
12624;BME280;6377;42.836;23.998;2023-05-07T00:09:48;95958.72;;;10.36;100.00
12624;BME280;6377;42.836;23.998;2023-05-07T00:12:15;95934.84;;;10.05;100.00
12624;BME280;6377;42.836;23.998;2023-05-07T00:14:42;95955.81;;;10.23;100.00
12624;BME280;6377;42.836;23.998;2023-05-07T00:17:10;95965.41;;;10.24;100.00
12624;BME280;6377;42.836;23.998;2023-05-07T00:19:38;95959.75;;;10.19;100.00
12624;BME280;6377;42.836;23.998;2023-05-07T00:22:06;95961.13;;;10.15;100.00
12624;BME280;6377;42.836;23.998;2023-05-07T00:24:34;95939.13;;;10.06;100.00
12624;BME280;6377;42.836;23.998;2023-05-07T00:27:01;95959.47;;;10.14;100.00
12624;BME280;6377;42.836;23.998;2023-05-07T00:29:28;95957.63;;;10.06;100.00
12624;BME280;6377;42.836;23.998;2023-05-07T00:31:55;95954.50;;;10.03;100.00
12624;BME280;6377;42.836;23.998;2023-05-07T00:34:23;95950.19;;;10.02;100.00
12624;BME280;6377;42.836;23.998;2023-05-07T00:36:51;95956.00;;;9.97;100.00
12624;BME280;6377;42.836;23.998;2023-05-07T00:39:18;95952.69;;;9.95;100.00
12624;BME280;6377;42.836;23.998;2023-05-07T00:41:46;95920.53;;;9.76;100.00
12624;BME280;6377;42.836;23.998;2023-05-07T00:44:13;95949.38;;;9.93;100.00
12624;BME280;6377;42.836;23.998;2023-05-07T00:46:40;95909.66;;;9.63;100.00
12624;BME280;6377;42.836;23.998;2023-05-07T00:49:07;95950.91;;;9.80;100.00
12624;BME280;6377;42.836;23.998;2023-05-07T00:51:35;95947.75;;;9.84;100.00
12624;BME280;6377;42.836;23.998;2023-05-07T00:54:03;95943.13;;;9.78;100.00
12624;BME280;6377;42.836;23.998;2023-05-07T00:56:31;95934.25;;;9.71;100.00
12624;BME280;6377;42.836;23.998;2023-05-07T00:58:59;95942.81;;;9.73;100.00
12624;BME280;6377;42.836;23.998;2023-05-07T01:01:27;95928.59;;;9.66;100.00
12624;BME280;6377;42.836;23.998;2023-05-07T01:03:54;95944.94;;;9.70;100.00
12624;BME280;6377;42.836;23.998;2023-05-07T01:06:23;95944.13;;;9.61;100.00
12624;BME280;6377;42.836;23.998;2023-05-07T01:08:54;95947.78;;;9.44;100.00
12624;BME280;6377;42.836;23.998;2023-05-07T01:11:23;95952.53;;;9.24;100.00
12624;BME280;6377;42.836;23.998;2023-05-07T01:13:51;95953.03;;;9.28;100.00
12624;BME280;6377;42.836;23.998;2023-05-07T01:16:19;95956.00;;;9.33;100.00
12624;BME280;6377;42.836;23.998;2023-05-07T01:18:47;95946.63;;;9.38;100.00
12624;BME280;6377;42.836;23.998;2023-05-07T01:21:15;95948.41;;;9.38;100.00
12624;BME280;6377;42.836;23.998;2023-05-07T01:23:45;95945.78;;;9.38;100.00
12624;BME280;6377;42.836;23.998;2023-05-07T01:26:14;95946.75;;;9.37;100.00
12624;BME280;6377;42.836;23.998;2023-05-07T01:28:41;95948.75;;;9.35;100.00
12624;BME280;6377;42.836;23.998;2023-05-07T01:31:09;95957.81;;;9.24;100.00
12624;BME280;6377;42.836;23.998;2023-05-07T01:33:38;95950.06;;;9.31;100.00
12624;BME280;6377;42.836;23.998;2023-05-07T01:36:08;95949.72;;;9.34;100.00
12624;BME280;6377;42.836;23.998;2023-05-07T01:38:37;95945.97;;;9.36;100.00
12624;BME280;6377;42.836;23.998;2023-05-07T01:41:07;95944.13;;;9.37;100.00
12624;BME280;6377;42.836;23.998;2023-05-07T01:43:34;95947.91;;;9.42;100.00
12624;BME280;6377;42.836;23.998;2023-05-07T01:46:02;95938.38;;;9.33;100.00
12624;BME280;6377;42.836;23.998;2023-05-07T01:48:30;95944.81;;;9.39;100.00
12624;BME280;6377;42.836;23.998;2023-05-07T01:50:59;95938.38;;;9.41;100.00
12624;BME280;6377;42.836;23.998;2023-05-07T01:53:27;95934.06;;;9.40;100.00
12624;BME280;6377;42.836;23.998;2023-05-07T01:55:54;95929.94;;;9.38;100.00
12624;BME280;6377;42.836;23.998;2023-05-07T01:58:23;95939.16;;;9.26;100.00
12624;BME280;6377;42.836;23.998;2023-05-07T02:00:50;95938.19;;;9.19;100.00
12624;BME280;6377;42.836;23.998;2023-05-07T02:03:17;95937.50;;;9.09;100.00
12624;BME280;6377;42.836;23.998;2023-05-07T02:05:45;95921.28;;;8.71;100.00
12624;BME280;6377;42.836;23.998;2023-05-07T02:08:12;95919.31;;;8.81;100.00
12624;BME280;6377;42.836;23.998;2023-05-07T02:10:39;95919.31;;;8.81;100.00
12624;BME280;6377;42.836;23.998;2023-05-07T02:13:06;95912.53;;;8.79;100.00
12624;BME280;6377;42.836;23.998;2023-05-07T02:15:35;95890.59;;;8.62;100.00
12624;BME280;6377;42.836;23.998;2023-05-07T02:18:03;95920.31;;;8.80;100.00
12624;BME280;6377;42.836;23.998;2023-05-07T02:20:32;95920.47;;;8.87;100.00
12624;BME280;6377;42.836;23.998;2023-05-07T02:22:59;95919.00;;;8.92;100.00
12624;BME280;6377;42.836;23.998;2023-05-07T02:25:26;95914.59;;;9.01;100.00
12624;BME280;6377;42.836;23.998;2023-05-07T02:27:54;95912.75;;;9.01;100.00
12624;BME280;6377;42.836;23.998;2023-05-07T02:30:21;95916.34;;;8.92;100.00
12624;BME280;6377;42.836;23.998;2023-05-07T02:32:50;95906.81;;;8.91;100.00
12624;BME280;6377;42.836;23.998;2023-05-07T02:35:18;95915.22;;;8.95;100.00
12624;BME280;6377;42.836;23.998;2023-05-07T02:37:45;95913.06;;;8.98;100.00
12624;BME280;6377;42.836;23.998;2023-05-07T02:40:12;95907.47;;;9.01;100.00
12624;BME280;6377;42.836;23.998;2023-05-07T02:42:40;95898.91;;;8.91;100.00
12624;BME280;6377;42.836;23.998;2023-05-07T02:45:08;95901.06;;;9.04;100.00
12624;BME280;6377;42.836;23.998;2023-05-07T02:47:35;95904.50;;;9.05;100.00
12624;BME280;6377;42.836;23.998;2023-05-07T02:50:05;95900.38;;;9.10;100.00
12624;BME280;6377;42.836;23.998;2023-05-07T02:52:33;95900.72;;;9.07;100.00
12624;BME280;6377;42.836;23.998;2023-05-07T02:55:00;95870.84;;;8.82;100.00
12624;BME280;6377;42.836;23.998;2023-05-07T02:57:28;95904.34;;;9.06;100.00
12624;BME280;6377;42.836;23.998;2023-05-07T02:59:55;95899.59;;;9.10;100.00
12624;BME280;6377;42.836;23.998;2023-05-07T03:02:22;95903.84;;;9.11;100.00
12624;BME280;6377;42.836;23.998;2023-05-07T03:04:49;95907.66;;;9.08;100.00
12624;BME280;6377;42.836;23.998;2023-05-07T03:07:17;95901.22;;;9.02;100.00
12624;BME280;6377;42.836;23.998;2023-05-07T03:09:45;95897.59;;;9.04;100.00
12624;BME280;6377;42.836;23.998;2023-05-07T03:12:12;95903.53;;;8.97;100.00
12624;BME280;6377;42.836;23.998;2023-05-07T03:14:39;95907.78;;;8.90;100.00
12624;BME280;6377;42.836;23.998;2023-05-07T03:17:06;95916.34;;;8.84;100.00
12624;BME280;6377;42.836;23.998;2023-05-07T03:19:33;95915.03;;;8.80;100.00
12624;BME280;6377;42.836;23.998;2023-05-07T03:22:00;95920.47;;;8.79;100.00
12624;BME280;6377;42.836;23.998;2023-05-07T03:24:29;95920.75;;;8.68;100.00
12624;BME280;6377;42.836;23.998;2023-05-07T03:26:56;95915.31;;;8.69;100.00
12624;BME280;6377;42.836;23.998;2023-05-07T03:29:23;95917.81;;;8.71;100.00
12624;BME280;6377;42.836;23.998;2023-05-07T03:31:51;95914.03;;;8.73;100.00
12624;BME280;6377;42.836;23.998;2023-05-07T03:34:18;95888.91;;;8.45;100.00
12624;BME280;6377;42.836;23.998;2023-05-07T03:36:47;95891.69;;;8.52;100.00
12624;BME280;6377;42.836;23.998;2023-05-07T03:39:15;95911.72;;;8.70;100.00
12624;BME280;6377;42.836;23.998;2023-05-07T03:41:43;95890.59;;;8.62;100.00
12624;BME280;6377;42.836;23.998;2023-05-07T03:44:10;95916.31;;;8.68;100.00
12624;BME280;6377;42.836;23.998;2023-05-07T03:46:38;95917.28;;;8.67;100.00
12624;BME280;6377;42.836;23.998;2023-05-07T03:49:05;95912.97;;;8.58;100.00
12624;BME280;6377;42.836;23.998;2023-05-07T03:51:32;95919.59;;;8.62;100.00
12624;BME280;6377;42.836;23.998;2023-05-07T03:53:59;95921.38;;;8.54;100.00
12624;BME280;6377;42.836;23.998;2023-05-07T03:56:26;95920.38;;;8.55;100.00
12624;BME280;6377;42.836;23.998;2023-05-07T03:58:55;95917.94;;;8.61;100.00
12624;BME280;6377;42.836;23.998;2023-05-07T04:01:22;95920.25;;;8.64;100.00
12624;BME280;6377;42.836;23.998;2023-05-07T04:03:49;95929.66;;;8.67;100.00
12624;BME280;6377;42.836;23.998;2023-05-07T04:06:16;95925.72;;;8.71;100.00
12624;BME280;6377;42.836;23.998;2023-05-07T04:08:44;95934.28;;;8.81;100.00
12624;BME280;6377;42.836;23.998;2023-05-07T04:11:11;95930.19;;;8.78;100.00
12624;BME280;6377;42.836;23.998;2023-05-07T04:13:38;95933.19;;;8.91;100.00
12624;BME280;6377;42.836;23.998;2023-05-07T04:16:07;95933.06;;;9.01;100.00
12624;BME280;6377;42.836;23.998;2023-05-07T04:18:34;95931.91;;;9.12;100.00
12624;BME280;6377;42.836;23.998;2023-05-07T04:21:01;95930.09;;;9.20;100.00
12624;BME280;6377;42.836;23.998;2023-05-07T04:23:28;95932.22;;;9.25;100.00
12624;BME280;6377;42.836;23.998;2023-05-07T04:25:55;95933.56;;;9.21;100.00
12624;BME280;6377;42.836;23.998;2023-05-07T04:28:23;95942.63;;;9.26;100.00
12624;BME280;6377;42.836;23.998;2023-05-07T04:30:50;95940.50;;;9.30;100.00
12624;BME280;6377;42.836;23.998;2023-05-07T04:33:19;95939.84;;;9.36;100.00
12624;BME280;6377;42.836;23.998;2023-05-07T04:35:46;95938.69;;;9.38;100.00
12624;BME280;6377;42.836;23.998;2023-05-07T04:38:13;95924.66;;;9.38;100.00
12624;BME280;6377;42.836;23.998;2023-05-07T04:40:40;95937.53;;;9.49;100.00
12624;BME280;6377;42.836;23.998;2023-05-07T04:43:07;95942.97;;;9.55;100.00
12624;BME280;6377;42.836;23.998;2023-05-07T04:45:35;95939.84;;;9.52;100.00
12624;BME280;6377;42.836;23.998;2023-05-07T04:48:02;95946.94;;;9.60;100.00
12624;BME280;6377;42.836;23.998;2023-05-07T04:50:31;95940.19;;;9.65;100.00
12624;BME280;6377;42.836;23.998;2023-05-07T04:52:59;95942.31;;;9.70;100.00
12624;BME280;6377;42.836;23.998;2023-05-07T04:55:26;95939.50;;;9.79;100.00
12624;BME280;6377;42.836;23.998;2023-05-07T04:57:53;95947.25;;;9.81;100.00
12624;BME280;6377;42.836;23.998;2023-05-07T05:00:21;95944.28;;;9.92;100.00
12624;BME280;6377;42.836;23.998;2023-05-07T05:02:48;95943.75;;;10.04;100.00
12624;BME280;6377;42.836;23.998;2023-05-07T05:05:15;95940.81;;;10.16;100.00
12624;BME280;6377;42.836;23.998;2023-05-07T05:07:44;95940.44;;;10.27;100.00
12624;BME280;6377;42.836;23.998;2023-05-07T05:10:11;95940.41;;;10.35;100.00
12624;BME280;6377;42.836;23.998;2023-05-07T05:12:38;95921.22;;;10.41;100.00
12624;BME280;6377;42.836;23.998;2023-05-07T05:15:07;95933.66;;;10.63;100.00
12624;BME280;6377;42.836;23.998;2023-05-07T05:17:34;95932.78;;;10.79;100.00
12624;BME280;6377;42.836;23.998;2023-05-07T05:20:02;95935.03;;;10.90;100.00
12624;BME280;6377;42.836;23.998;2023-05-07T05:22:29;95930.88;;;10.95;100.00
12624;BME280;6377;42.836;23.998;2023-05-07T05:24:58;95934.25;;;11.12;100.00
12624;BME280;6377;42.836;23.998;2023-05-07T05:27:26;95937.19;;;11.17;100.00
12624;BME280;6377;42.836;23.998;2023-05-07T05:29:53;95934.31;;;11.27;100.00
12624;BME280;6377;42.836;23.998;2023-05-07T05:32:20;95947.72;;;11.48;100.00
12624;BME280;6377;42.836;23.998;2023-05-07T05:34:47;95940.28;;;11.66;100.00
12624;BME280;6377;42.836;23.998;2023-05-07T05:37:15;95944.69;;;11.82;100.00
12624;BME280;6377;42.836;23.998;2023-05-07T05:39:42;95945.53;;;11.97;100.00
12624;BME280;6377;42.836;23.998;2023-05-07T05:42:11;95948.72;;;12.07;100.00
12624;BME280;6377;42.836;23.998;2023-05-07T05:44:38;95942.81;;;12.19;100.00
12624;BME280;6377;42.836;23.998;2023-05-07T05:47:05;95951.63;;;12.34;100.00
12624;BME280;6377;42.836;23.998;2023-05-07T05:49:32;95947.41;;;12.55;100.00
12624;BME280;6377;42.836;23.998;2023-05-07T05:52:00;95945.19;;;12.73;100.00
12624;BME280;6377;42.836;23.998;2023-05-07T05:54:27;95947.91;;;12.94;100.00
12624;BME280;6377;42.836;23.998;2023-05-07T05:56:54;95942.75;;;13.07;100.00
12624;BME280;6377;42.836;23.998;2023-05-07T05:59:23;95938.72;;;13.26;100.00
12624;BME280;6377;42.836;23.998;2023-05-07T06:01:50;95938.47;;;13.42;100.00
12624;BME280;6377;42.836;23.998;2023-05-07T06:04:17;95931.84;;;13.53;100.00
12624;BME280;6377;42.836;23.998;2023-05-07T06:06:44;95931.94;;;13.66;100.00
12624;BME280;6377;42.836;23.998;2023-05-07T06:09:12;95941.88;;;13.78;100.00
12624;BME280;6377;42.836;23.998;2023-05-07T06:11:42;95940.53;;;13.89;100.00
12624;BME280;6377;42.836;23.998;2023-05-07T06:14:09;95935.09;;;13.97;100.00
12624;BME280;6377;42.836;23.998;2023-05-07T06:16:37;95942.75;;;14.13;100.00
12624;BME280;6377;42.836;23.998;2023-05-07T06:19:05;95932.03;;;14.28;100.00
12624;BME280;6377;42.836;23.998;2023-05-07T06:21:32;95870.13;;;14.13;100.00
12624;BME280;6377;42.836;23.998;2023-05-07T06:23:59;95889.06;;;14.31;100.00
12624;BME280;6377;42.836;23.998;2023-05-07T06:26:26;95927.38;;;14.64;100.00
12624;BME280;6377;42.836;23.998;2023-05-07T06:28:53;95926.84;;;14.82;100.00
12624;BME280;6377;42.836;23.998;2023-05-07T06:31:21;95926.25;;;14.93;100.00
12624;BME280;6377;42.836;23.998;2023-05-07T06:33:49;95929.34;;;15.03;100.00
12624;BME280;6377;42.836;23.998;2023-05-07T06:36:16;95927.75;;;15.02;100.00
12624;BME280;6377;42.836;23.998;2023-05-07T06:38:44;95932.06;;;15.09;100.00
12624;BME280;6377;42.836;23.998;2023-05-07T06:41:11;95933.78;;;15.37;100.00
12624;BME280;6377;42.836;23.998;2023-05-07T06:43:38;95929.31;;;15.50;100.00
12624;BME280;6377;42.836;23.998;2023-05-07T06:46:05;95926.06;;;15.68;100.00
12624;BME280;6377;42.836;23.998;2023-05-07T06:48:32;95921.38;;;15.90;100.00
12624;BME280;6377;42.836;23.998;2023-05-07T06:51:01;95924.66;;;15.98;100.00
12624;BME280;6377;42.836;23.998;2023-05-07T06:53:28;95900.88;;;15.97;100.00
12624;BME280;6377;42.836;23.998;2023-05-07T06:55:56;95898.38;;;16.15;100.00
12624;BME280;6377;42.836;23.998;2023-05-07T06:58:23;95925.44;;;16.51;100.00
12624;BME280;6377;42.836;23.998;2023-05-07T07:00:50;95922.97;;;16.63;100.00
12624;BME280;6377;42.836;23.998;2023-05-07T07:03:17;95927.66;;;16.74;100.00
12624;BME280;6377;42.836;23.998;2023-05-07T07:05:45;95905.00;;;16.90;100.00
12624;BME280;6377;42.836;23.998;2023-05-07T07:08:13;95921.94;;;17.15;100.00
12624;BME280;6377;42.836;23.998;2023-05-07T07:10:42;95918.00;;;17.24;100.00
12624;BME280;6377;42.836;23.998;2023-05-07T07:13:09;95924.69;;;17.40;100.00
12624;BME280;6377;42.836;23.998;2023-05-07T07:15:37;95898.53;;;17.48;100.00
12624;BME280;6377;42.836;23.998;2023-05-07T07:18:04;95865.50;;;17.36;100.00
12624;BME280;6377;42.836;23.998;2023-05-07T07:20:31;95887.75;;;17.61;96.76
12624;BME280;6377;42.836;23.998;2023-05-07T07:22:58;95897.06;;;17.83;100.00
12624;BME280;6377;42.836;23.998;2023-05-07T07:25:27;95909.25;;;18.04;97.32
12624;BME280;6377;42.836;23.998;2023-05-07T07:27:54;95901.50;;;18.21;98.25
12624;BME280;6377;42.836;23.998;2023-05-07T07:30:21;95915.66;;;18.28;94.63
12624;BME280;6377;42.836;23.998;2023-05-07T07:32:49;95902.88;;;18.48;84.16
12624;BME280;6377;42.836;23.998;2023-05-07T07:35:17;95912.59;;;18.67;84.26
12624;BME280;6377;42.836;23.998;2023-05-07T07:37:44;95916.41;;;18.78;83.14
12624;BME280;6377;42.836;23.998;2023-05-07T07:40:12;95914.19;;;18.93;87.57
12624;BME280;6377;42.836;23.998;2023-05-07T07:42:40;95912.59;;;19.03;84.65
12624;BME280;6377;42.836;23.998;2023-05-07T07:45:08;95912.53;;;19.10;75.35
12624;BME280;6377;42.836;23.998;2023-05-07T07:47:35;95918.53;;;19.24;76.27
12624;BME280;6377;42.836;23.998;2023-05-07T07:50:03;95924.03;;;19.29;78.19
12624;BME280;6377;42.836;23.998;2023-05-07T07:52:31;95921.41;;;19.40;76.61
12624;BME280;6377;42.836;23.998;2023-05-07T07:54:58;95914.56;;;19.44;65.25
12624;BME280;6377;42.836;23.998;2023-05-07T07:57:25;95925.34;;;19.56;64.52
12624;BME280;6377;42.836;23.998;2023-05-07T07:59:54;95903.06;;;19.55;58.38
12624;BME280;6377;42.836;23.998;2023-05-07T08:02:21;95901.41;;;19.84;60.65
12624;BME280;6377;42.836;23.998;2023-05-07T08:04:48;95909.22;;;19.86;61.36
12624;BME280;6377;42.836;23.998;2023-05-07T08:07:15;95890.19;;;19.87;58.80
12624;BME280;6377;42.836;23.998;2023-05-07T08:09:44;95915.56;;;20.14;61.14
12624;BME280;6377;42.836;23.998;2023-05-07T08:12:11;95901.91;;;20.16;53.21
12624;BME280;6377;42.836;23.998;2023-05-07T08:14:38;95911.31;;;20.25;57.86
12624;BME280;6377;42.836;23.998;2023-05-07T08:17:07;95908.25;;;20.33;55.50
12624;BME280;6377;42.836;23.998;2023-05-07T08:19:35;95906.16;;;20.47;57.03
12624;BME280;6377;42.836;23.998;2023-05-07T08:22:03;95911.16;;;20.55;58.93
12624;BME280;6377;42.836;23.998;2023-05-07T08:24:31;95907.44;;;20.56;56.43
12624;BME280;6377;42.836;23.998;2023-05-07T08:26:58;95910.13;;;20.44;57.41
12624;BME280;6377;42.836;23.998;2023-05-07T08:29:25;95905.69;;;20.61;60.68
12624;BME280;6377;42.836;23.998;2023-05-07T08:31:52;95909.28;;;20.79;57.29
12624;BME280;6377;42.836;23.998;2023-05-07T08:34:21;95906.47;;;20.74;55.63
12624;BME280;6377;42.836;23.998;2023-05-07T08:36:49;95901.19;;;20.90;58.05
12624;BME280;6377;42.836;23.998;2023-05-07T08:39:16;95896.88;;;20.89;57.69
12624;BME280;6377;42.836;23.998;2023-05-07T08:41:45;95894.66;;;21.09;58.31
12624;BME280;6377;42.836;23.998;2023-05-07T08:44:13;95889.13;;;21.16;55.30
12624;BME280;6377;42.836;23.998;2023-05-07T08:46:41;95894.47;;;21.28;53.90
12624;BME280;6377;42.836;23.998;2023-05-07T08:49:09;95885.22;;;21.23;53.55
12624;BME280;6377;42.836;23.998;2023-05-07T08:51:38;95889.94;;;21.05;52.25
12624;BME280;6377;42.836;23.998;2023-05-07T08:54:06;95886.19;;;21.17;54.53
12624;BME280;6377;42.836;23.998;2023-05-07T08:56:33;95879.84;;;21.23;53.47
12624;BME280;6377;42.836;23.998;2023-05-07T08:59:01;95878.63;;;21.43;53.81
12624;BME280;6377;42.836;23.998;2023-05-07T09:01:29;95884.25;;;21.58;52.18
12624;BME280;6377;42.836;23.998;2023-05-07T09:03:57;95877.75;;;21.70;50.79
12624;BME280;6377;42.836;23.998;2023-05-07T09:06:24;95875.50;;;21.79;50.80
12624;BME280;6377;42.836;23.998;2023-05-07T09:08:54;95865.28;;;21.64;50.60
12624;BME280;6377;42.836;23.998;2023-05-07T09:11:22;95869.19;;;21.57;49.41
12624;BME280;6377;42.836;23.998;2023-05-07T09:13:53;95877.38;;;21.78;50.76
12624;BME280;6377;42.836;23.998;2023-05-07T09:16:21;95845.59;;;21.64;48.37
12624;BME280;6377;42.836;23.998;2023-05-07T09:18:51;95855.47;;;22.03;49.66
12624;BME280;6377;42.836;23.998;2023-05-07T09:21:19;95877.97;;;22.14;50.70
12624;BME280;6377;42.836;23.998;2023-05-07T09:23:49;95834.56;;;21.94;50.38
12624;BME280;6377;42.836;23.998;2023-05-07T09:26:19;95870.53;;;22.38;50.47
12624;BME280;6377;42.836;23.998;2023-05-07T09:28:47;95829.00;;;22.33;47.34
12624;BME280;6377;42.836;23.998;2023-05-07T09:31:15;95862.09;;;22.67;43.13
12624;BME280;6377;42.836;23.998;2023-05-07T09:33:42;95795.13;;;22.21;45.20
12624;BME280;6377;42.836;23.998;2023-05-07T09:36:10;95856.28;;;22.75;46.13
12624;BME280;6377;42.836;23.998;2023-05-07T09:38:37;95846.19;;;22.87;45.87
12624;BME280;6377;42.836;23.998;2023-05-07T09:41:06;95843.44;;;23.04;44.11
12624;BME280;6377;42.836;23.998;2023-05-07T09:43:35;95840.34;;;23.17;45.79
12624;BME280;6377;42.836;23.998;2023-05-07T09:46:05;95847.47;;;23.28;45.98
12624;BME280;6377;42.836;23.998;2023-05-07T09:48:36;95836.91;;;23.49;43.31
12624;BME280;6377;42.836;23.998;2023-05-07T09:51:09;95842.59;;;23.47;39.69
12624;BME280;6377;42.836;23.998;2023-05-07T09:53:39;95832.84;;;23.46;40.59
12624;BME280;6377;42.836;23.998;2023-05-07T09:56:08;95822.06;;;23.46;41.52
12624;BME280;6377;42.836;23.998;2023-05-07T09:58:39;95833.25;;;23.86;40.71
12624;BME280;6377;42.836;23.998;2023-05-07T10:01:09;95830.38;;;24.35;38.07
12624;BME280;6377;42.836;23.998;2023-05-07T10:03:37;95827.88;;;23.91;35.93
12624;BME280;6377;42.836;23.998;2023-05-07T10:06:07;95805.63;;;23.79;38.25
12624;BME280;6377;42.836;23.998;2023-05-07T10:08:35;95814.59;;;24.17;36.09
12624;BME280;6377;42.836;23.998;2023-05-07T10:11:03;95817.41;;;24.32;36.97
12624;BME280;6377;42.836;23.998;2023-05-07T10:13:31;95790.69;;;24.45;36.99
12624;BME280;6377;42.836;23.998;2023-05-07T10:16:01;95812.16;;;25.14;36.18
12624;BME280;6377;42.836;23.998;2023-05-07T10:18:29;95800.28;;;25.35;35.22
12624;BME280;6377;42.836;23.998;2023-05-07T10:21:04;95815.19;;;25.43;36.22
12624;BME280;6377;42.836;23.998;2023-05-07T10:23:34;95815.19;;;25.38;35.89
12624;BME280;6377;42.836;23.998;2023-05-07T10:26:04;95801.66;;;25.33;33.31
12624;BME280;6377;42.836;23.998;2023-05-07T10:28:36;95773.25;;;24.68;34.82
12624;BME280;6377;42.836;23.998;2023-05-07T10:31:18;95803.13;;;24.83;35.00
12624;BME280;6377;42.836;23.998;2023-05-07T10:33:51;95803.13;;;24.88;35.73
12624;BME280;6377;42.836;23.998;2023-05-07T10:36:20;95798.38;;;25.26;36.39
12624;BME280;6377;42.836;23.998;2023-05-07T10:38:48;95791.09;;;25.41;33.99
12624;BME280;6377;42.836;23.998;2023-05-07T10:41:15;95797.66;;;25.71;34.65
12624;BME280;6377;42.836;23.998;2023-05-07T10:43:45;95785.19;;;25.65;35.27
12624;BME280;6377;42.836;23.998;2023-05-07T10:46:16;95752.66;;;25.44;35.92
12624;BME280;6377;42.836;23.998;2023-05-07T10:49:08;95791.16;;;26.07;34.36
12624;BME280;6377;42.836;23.998;2023-05-07T10:51:37;95780.25;;;26.57;34.37
12624;BME280;6377;42.836;23.998;2023-05-07T10:54:21;95774.25;;;26.70;33.39
12624;BME280;6377;42.836;23.998;2023-05-07T10:56:50;95767.16;;;26.85;31.79
12624;BME280;6377;42.836;23.998;2023-05-07T10:59:35;95770.25;;;27.17;33.85
12624;BME280;6377;42.836;23.998;2023-05-07T11:02:09;95768.78;;;27.78;31.96
12624;BME280;6377;42.836;23.998;2023-05-07T11:04:39;95742.16;;;27.42;30.95
12624;BME280;6377;42.836;23.998;2023-05-07T11:07:25;95738.19;;;27.19;32.73
12624;BME280;6377;42.836;23.998;2023-05-07T11:10:03;95773.75;;;27.66;32.61
12624;BME280;6377;42.836;23.998;2023-05-07T11:12:48;95775.19;;;27.54;31.75
12624;BME280;6377;42.836;23.998;2023-05-07T11:15:34;95770.38;;;27.85;32.46
12624;BME280;6377;42.836;23.998;2023-05-07T11:18:03;95774.66;;;27.91;31.26
12624;BME280;6377;42.836;23.998;2023-05-07T11:20:56;95767.56;;;28.52;31.05
12624;BME280;6377;42.836;23.998;2023-05-07T11:26:29;95758.94;;;28.45;30.36
12624;BME280;6377;42.836;23.998;2023-05-07T11:28:57;95768.03;;;28.64;30.53
12624;BME280;6377;42.836;23.998;2023-05-07T11:31:27;95765.69;;;28.24;30.35
12624;BME280;6377;42.836;23.998;2023-05-07T11:33:57;95772.41;;;27.20;31.55
12624;BME280;6377;42.836;23.998;2023-05-07T11:36:24;95765.78;;;27.36;31.78
12624;BME280;6377;42.836;23.998;2023-05-07T11:38:52;95762.69;;;27.09;31.46
12624;BME280;6377;42.836;23.998;2023-05-07T11:41:19;95760.56;;;27.50;30.80
12624;BME280;6377;42.836;23.998;2023-05-07T11:43:58;95739.28;;;27.62;31.22
12624;BME280;6377;42.836;23.998;2023-05-07T11:46:26;95767.53;;;28.00;31.81
12624;BME280;6377;42.836;23.998;2023-05-07T11:48:56;95759.38;;;28.28;31.41
12624;BME280;6377;42.836;23.998;2023-05-07T11:51:24;95761.16;;;28.14;30.72
12624;BME280;6377;42.836;23.998;2023-05-07T11:53:53;95762.28;;;27.31;31.10
12624;BME280;6377;42.836;23.998;2023-05-07T11:56:20;95745.16;;;26.91;32.71
12624;BME280;6377;42.836;23.998;2023-05-07T11:58:48;95726.84;;;27.56;31.49
12624;BME280;6377;42.836;23.998;2023-05-07T12:01:17;95751.47;;;28.32;29.95
12624;BME280;6377;42.836;23.998;2023-05-07T12:03:45;95749.03;;;28.54;29.69
12624;BME280;6377;42.836;23.998;2023-05-07T12:06:15;95748.31;;;28.20;30.50
12624;BME280;6377;42.836;23.998;2023-05-07T12:08:44;95746.97;;;27.83;29.73
12624;BME280;6377;42.836;23.998;2023-05-07T12:11:14;95755.00;;;28.32;29.86
12624;BME280;6377;42.836;23.998;2023-05-07T12:13:43;95748.97;;;28.59;30.27
12624;BME280;6377;42.836;23.998;2023-05-07T12:16:11;95741.25;;;29.14;28.62
12624;BME280;6377;42.836;23.998;2023-05-07T12:18:38;95736.75;;;29.79;27.94
12624;BME280;6377;42.836;23.998;2023-05-07T12:21:06;95736.75;;;30.43;27.38
12624;BME280;6377;42.836;23.998;2023-05-07T12:23:36;95739.50;;;30.11;26.97
12624;BME280;6377;42.836;23.998;2023-05-07T12:26:04;95732.03;;;30.17;27.35
12624;BME280;6377;42.836;23.998;2023-05-07T12:28:36;95715.75;;;30.44;28.50
12624;BME280;6377;42.836;23.998;2023-05-07T12:31:04;95736.09;;;30.19;27.75
12624;BME280;6377;42.836;23.998;2023-05-07T12:33:32;95732.44;;;28.56;27.79
12624;BME280;6377;42.836;23.998;2023-05-07T12:36:04;95738.06;;;27.78;29.42
12624;BME280;6377;42.836;23.998;2023-05-07T12:38:37;95732.22;;;27.61;29.64
12624;BME280;6377;42.836;23.998;2023-05-07T12:41:07;95736.38;;;27.53;30.55
12624;BME280;6377;42.836;23.998;2023-05-07T12:43:34;95734.66;;;27.23;30.71
12624;BME280;6377;42.836;23.998;2023-05-07T12:46:04;95729.47;;;26.68;31.61
12624;BME280;6377;42.836;23.998;2023-05-07T12:48:32;95732.63;;;26.21;32.79
12624;BME280;6377;42.836;23.998;2023-05-07T12:51:00;95725.03;;;25.78;33.00
12624;BME280;6377;42.836;23.998;2023-05-07T12:53:29;95721.28;;;25.58;33.43
12624;BME280;6377;42.836;23.998;2023-05-07T12:55:59;95717.47;;;25.95;33.52
12624;BME280;6377;42.836;23.998;2023-05-07T12:58:27;95709.72;;;26.52;31.77
12624;BME280;6377;42.836;23.998;2023-05-07T13:00:56;95708.25;;;27.29;31.64
12624;BME280;6377;42.836;23.998;2023-05-07T13:03:25;95704.72;;;27.28;30.81
12624;BME280;6377;42.836;23.998;2023-05-07T13:05:53;95701.06;;;27.82;30.82
12624;BME280;6377;42.836;23.998;2023-05-07T13:08:25;95696.59;;;28.72;29.34